createdAt,value
2019-05-19T00:00:06.895Z,93.3
2019-05-19T00:05:07.330Z,93.1
2019-05-19T00:10:06.316Z,92.6
2019-05-19T00:15:06.581Z,92.6
2019-05-19T00:20:06.554Z,92.8
2019-05-19T00:35:12.433Z,96.2
2019-05-19T00:40:07.274Z,96.3
2019-05-19T00:45:07.090Z,96.3
2019-05-19T00:50:07.334Z,97.7
2019-05-19T00:55:06.857Z,98.7
2019-05-19T01:00:08.874Z,99.4
2019-05-19T01:05:06.841Z,99.6
2019-05-19T01:10:06.950Z,100
2019-05-19T01:15:08.496Z,100
2019-05-19T01:20:07.031Z,100
2019-05-19T01:25:06.816Z,100
2019-05-19T01:30:07.253Z,100
2019-05-19T01:35:08.116Z,100
2019-05-19T01:40:07.246Z,100
2019-05-19T01:45:07.151Z,100
2019-05-19T01:50:17.661Z,100
2019-05-19T01:55:10.013Z,100
2019-05-19T02:00:07.566Z,100
2019-05-19T02:06:39.726Z,100
2019-05-19T02:10:06.984Z,100
2019-05-19T02:15:07.006Z,100
2019-05-19T02:20:07.263Z,100
2019-05-19T02:25:07.221Z,100
2019-05-19T02:30:07.298Z,100
2019-05-19T02:35:07.645Z,100
2019-05-19T02:40:06.719Z,100
2019-05-19T02:45:06.818Z,100
2019-05-19T02:50:06.923Z,100
2019-05-19T02:55:06.800Z,100
2019-05-19T03:00:07.208Z,100
2019-05-19T03:05:06.571Z,100
2019-05-19T03:10:06.649Z,100
2019-05-19T03:15:06.593Z,100
2019-05-19T03:20:06.661Z,100
2019-05-19T03:25:06.761Z,100
2019-05-19T03:30:07.008Z,100
2019-05-19T03:35:06.628Z,100
2019-05-19T03:40:06.760Z,100
2019-05-19T03:45:06.714Z,100
2019-05-19T03:50:06.725Z,100
2019-05-19T03:55:06.568Z,100
2019-05-19T04:00:06.621Z,100
2019-05-19T04:05:06.701Z,100
2019-05-19T04:10:06.940Z,100
2019-05-19T04:15:06.775Z,100
2019-05-19T04:20:09.319Z,100
2019-05-19T04:25:06.328Z,100
2019-05-19T04:30:06.534Z,100
2019-05-19T04:35:06.789Z,100
2019-05-19T04:40:06.603Z,100
2019-05-19T04:45:06.457Z,100
2019-05-19T04:50:06.622Z,100
2019-05-19T04:55:06.438Z,100
2019-05-19T05:00:06.388Z,100
2019-05-19T05:05:06.522Z,100
2019-05-19T05:10:06.450Z,100
2019-05-19T05:15:06.585Z,100
2019-05-19T05:20:06.512Z,100
2019-05-19T05:25:06.364Z,100
2019-05-19T05:30:07.199Z,100
2019-05-19T05:35:06.269Z,100
2019-05-19T05:40:06.511Z,100
2019-05-19T05:45:06.937Z,100
2019-05-19T05:50:06.469Z,100
2019-05-19T05:55:06.195Z,100
2019-05-19T06:00:06.390Z,100
2019-05-19T06:05:06.435Z,100
2019-05-19T06:10:06.298Z,100
2019-05-19T06:15:06.543Z,100
2019-05-19T06:20:07.144Z,100
2019-05-19T06:25:06.532Z,100
2019-05-19T06:30:10.461Z,100
2019-05-19T06:35:06.692Z,100
2019-05-19T06:40:06.453Z,100
2019-05-19T06:45:06.128Z,100
2019-05-19T06:50:07.122Z,100
2019-05-19T06:55:06.370Z,100
2019-05-19T07:00:06.960Z,100
2019-05-19T07:05:06.372Z,100
2019-05-19T07:10:06.200Z,100
2019-05-19T07:15:06.111Z,100
2019-05-19T07:20:06.628Z,100
2019-05-19T07:25:06.594Z,100
2019-05-19T07:30:06.442Z,100
2019-05-19T07:35:06.469Z,100
2019-05-19T07:40:06.162Z,100
2019-05-19T07:45:06.015Z,100
2019-05-19T07:50:06.517Z,100
2019-05-19T07:55:06.069Z,100
2019-05-19T08:00:06.385Z,100
2019-05-19T08:05:06.210Z,100
2019-05-19T08:10:06.251Z,100
2019-05-19T08:15:06.325Z,100
2019-05-19T08:20:06.351Z,100
2019-05-19T08:25:06.543Z,100
2019-05-19T08:30:06.291Z,98.4
2019-05-19T08:35:05.864Z,97.6
2019-05-19T08:40:06.410Z,97.3
2019-05-19T08:45:06.303Z,95.3
2019-05-19T08:50:06.271Z,93.9
2019-05-19T08:55:05.820Z,93.1
2019-05-19T09:00:06.373Z,91.4
2019-05-19T09:05:06.047Z,92.4
2019-05-19T09:10:06.042Z,92
2019-05-19T09:15:07.038Z,91
2019-05-19T09:20:06.686Z,91.1
2019-05-19T09:25:05.836Z,91.2
2019-05-19T09:30:06.597Z,91
2019-05-19T09:35:06.154Z,92.7
2019-05-19T09:40:09.661Z,92.8
2019-05-19T09:45:05.920Z,92
2019-05-19T09:50:06.404Z,92.2
2019-05-19T09:55:06.264Z,92.4
2019-05-19T10:00:06.293Z,90.9
2019-05-19T10:05:06.064Z,91.1
2019-05-19T10:10:05.938Z,90.6
2019-05-19T10:15:06.003Z,90.7
2019-05-19T10:20:06.594Z,91
2019-05-19T10:25:21.171Z,90.9
2019-05-19T10:30:06.007Z,90.4
2019-05-19T10:35:06.492Z,93.1
2019-05-19T10:40:06.095Z,93
2019-05-19T10:45:05.926Z,92
2019-05-19T10:50:06.208Z,92.2
2019-05-19T10:55:05.891Z,90.8
2019-05-19T11:00:05.841Z,91.6
2019-05-19T11:05:05.931Z,92.7
2019-05-19T11:10:05.945Z,93.4
2019-05-19T11:15:06.065Z,93.4
2019-05-19T11:20:06.298Z,92.5
2019-05-19T11:25:05.914Z,90.6
2019-05-19T11:30:07.116Z,87.8
2019-05-19T11:35:06.283Z,88.3
2019-05-19T11:40:06.732Z,89.4
2019-05-19T11:45:06.031Z,87.6
2019-05-19T11:50:07.319Z,86.6
2019-05-19T11:55:05.668Z,86.4
2019-05-19T12:00:07.322Z,85.9
2019-05-19T12:05:06.045Z,84.1
2019-05-19T12:10:05.890Z,83.7
2019-05-19T12:15:12.599Z,82.9
2019-05-19T12:20:05.894Z,83.1
2019-05-19T12:25:06.223Z,83
2019-05-19T12:30:07.946Z,83.4
2019-05-19T12:35:06.344Z,83.5
2019-05-19T12:40:07.060Z,81.7
2019-05-19T12:45:06.887Z,82.2
2019-05-19T12:50:07.658Z,80.1
2019-05-19T12:55:05.900Z,81.1
2019-05-19T13:00:06.570Z,80.2
2019-05-19T13:05:06.702Z,81.7
2019-05-19T13:10:05.736Z,82.3
2019-05-19T13:15:06.450Z,82.3
2019-05-19T13:20:06.067Z,80.5
2019-05-19T13:25:06.482Z,79.1
2019-05-19T13:30:06.684Z,79.1
2019-05-19T13:35:05.856Z,79.4
2019-05-19T13:40:06.767Z,77.8
2019-05-19T13:45:05.867Z,80.4
2019-05-19T13:50:05.747Z,77.1
2019-05-19T13:55:06.609Z,75.8
2019-05-19T14:00:05.943Z,76.3
2019-05-19T14:05:05.836Z,74.5
2019-05-19T14:10:05.849Z,72
2019-05-19T14:15:07.523Z,72.2
2019-05-19T14:20:05.973Z,71
2019-05-19T14:25:05.673Z,71.3
2019-05-19T14:30:06.010Z,72.4
2019-05-19T14:35:05.386Z,74.9
2019-05-19T14:40:05.982Z,76.4
2019-05-19T14:45:05.896Z,78
2019-05-19T14:50:05.736Z,78.8
2019-05-19T14:55:05.535Z,78.9
2019-05-19T15:00:05.970Z,76.6
2019-05-19T15:05:05.631Z,77.4
2019-05-19T15:10:06.025Z,79.5
2019-05-19T15:15:05.513Z,80.6
2019-05-19T15:20:05.609Z,79
2019-05-19T15:25:05.512Z,79.7
2019-05-19T15:30:12.913Z,78.5
2019-05-19T15:35:05.385Z,80.8
2019-05-19T15:40:12.157Z,81.8
2019-05-19T15:45:06.337Z,85.3
2019-05-19T15:50:05.660Z,85.5
2019-05-19T15:55:05.364Z,86.3
2019-05-19T16:00:05.346Z,85.8
2019-05-19T16:05:05.372Z,85.6
2019-05-19T16:10:05.399Z,86.2
2019-05-19T16:15:05.922Z,85.2
2019-05-19T16:40:10.709Z,87.8
2019-05-19T16:45:08.223Z,87.8
2019-05-19T17:05:16.490Z,87.8
2019-05-19T17:10:07.484Z,87.8
2019-05-19T17:15:18.817Z,87.8
2019-05-19T17:50:11.869Z,87.8
2019-05-19T17:55:07.425Z,87.8
2019-05-19T18:00:10.041Z,87.8
2019-05-19T18:05:07.375Z,87.8
2019-05-19T18:10:07.138Z,87.8
2019-05-19T18:15:07.152Z,100
2019-05-19T18:20:07.192Z,100
2019-05-19T18:25:07.319Z,100
2019-05-19T18:30:07.281Z,100
2019-05-19T18:35:07.430Z,100
2019-05-19T18:40:07.468Z,100
2019-05-19T18:45:07.114Z,100
2019-05-19T18:50:07.060Z,100
2019-05-19T18:55:07.140Z,100
2019-05-19T19:00:07.284Z,100
2019-05-19T19:05:07.239Z,100
2019-05-19T19:10:07.040Z,100
2019-05-19T19:15:07.502Z,100
2019-05-19T19:20:07.256Z,100
2019-05-19T19:25:07.411Z,100
2019-05-19T19:30:07.397Z,100
2019-05-19T19:35:07.016Z,100
2019-05-19T19:40:06.974Z,100
2019-05-19T19:45:07.241Z,100
2019-05-19T19:50:07.478Z,100
2019-05-19T20:25:09.930Z,100
2019-05-19T20:30:08.052Z,100
2019-05-19T20:55:09.225Z,100
2019-05-19T21:00:07.401Z,100
2019-05-19T21:05:07.210Z,100
2019-05-19T21:10:07.241Z,100
2019-05-19T21:15:07.663Z,100
2019-05-19T21:30:10.613Z,100
2019-05-19T21:35:07.755Z,100
2019-05-19T21:40:07.220Z,100
2019-05-19T21:45:07.150Z,100
2019-05-19T21:50:07.424Z,100
2019-05-19T21:55:07.012Z,100
2019-05-19T22:00:07.178Z,100
2019-05-19T22:05:07.028Z,100
2019-05-19T22:10:07.038Z,100
2019-05-19T22:15:07.139Z,100
2019-05-19T22:20:07.408Z,100
2019-05-19T22:25:07.304Z,100
2019-05-19T22:30:07.009Z,100
2019-05-19T22:35:07.484Z,100
2019-05-19T22:40:06.969Z,100
2019-05-19T22:45:07.217Z,100
2019-05-19T22:50:07.084Z,100
2019-05-19T22:55:07.324Z,100
2019-05-19T23:00:07.638Z,100
2019-05-19T23:05:07.381Z,100
2019-05-19T23:10:07.222Z,100
2019-05-19T23:15:07.203Z,100
2019-05-19T23:20:07.067Z,100
2019-05-19T23:25:07.150Z,100
2019-05-19T23:30:07.145Z,100
2019-05-19T23:35:06.829Z,100
2019-05-19T23:40:07.159Z,100
2019-05-19T23:45:07.078Z,100
2019-05-19T23:50:07.361Z,100
2019-05-19T23:55:06.887Z,100
